Time;durP1;ratioP1;P1;durP2;ratioP2;P2;SDS_P1;SDS_P2;PMS_P1;PMS_P2;Temp;Humidity;BMP_temperature;BMP_pressure;BME280_temperature;BME280_humidity;BME280_pressure;Samples;Min_cycle;Max_cycle;Signal;HPM_P1;HPM_P2
2022/08/09 00:00:41;;;;;;;8.73;4.97;;;;;;;;;;2056821;28;20170;-60
2022/08/09 00:01:47;;;;;;;6.43;5.88;;;;;;;;;;2057866;28;20206;-64
2022/08/09 00:02:47;;;;;;;5.63;5.05;;;;;;;;;;2052045;28;20230;-65
2022/08/09 00:03:47;;;;;;;5.80;5.30;;;;;;;;;;2056205;28;20662;-62
2022/08/09 00:04:48;;;;;;;5.88;5.38;;;;;;;;;;2056358;28;20178;-63
2022/08/09 00:05:48;;;;;;;6.10;5.05;;;;;;;;;;2056958;28;20182;-64
2022/08/09 00:06:48;;;;;;;5.07;4.60;;;;;;;;;;2057165;28;20178;-64
2022/08/09 00:07:49;;;;;;;5.50;4.88;;;;;;;;;;2056817;28;20233;-63
2022/08/09 00:08:49;;;;;;;7.22;5.20;;;;;;;;;;2056827;28;20178;-60
2022/08/09 00:09:49;;;;;;;6.22;4.80;;;;;;;;;;2056803;28;20623;-66
2022/08/09 00:10:50;;;;;;;8.95;6.28;;;;;;;;;;2055892;28;20237;-64
2022/08/09 00:11:50;;;;;;;6.53;5.30;;;;;;;;;;2056726;28;20198;-64
2022/08/09 00:12:51;;;;;;;5.30;4.80;;;;;;;;;;2056926;28;20258;-63
2022/08/09 00:13:51;;;;;;;6.47;5.32;;;;;;;;;;2055772;28;20666;-67
2022/08/09 00:14:52;;;;;;;5.63;5.03;;;;;;;;;;2059592;28;20188;-64
2022/08/09 00:15:52;;;;;;;5.45;5.05;;;;;;;;;;2065031;28;20169;-66
2022/08/09 00:16:52;;;;;;;6.53;5.25;;;;;;;;;;2061386;28;20166;-62
2022/08/09 00:17:53;;;;;;;5.97;5.38;;;;;;;;;;2056939;28;20616;-65
2022/08/09 00:18:53;;;;;;;6.22;5.30;;;;;;;;;;2057038;28;20804;-62
2022/08/09 00:19:53;;;;;;;6.15;5.60;;;;;;;;;;2057026;28;20616;-63
2022/08/09 00:20:54;;;;;;;6.25;5.65;;;;;;;;;;2057005;28;20163;-62
2022/08/09 00:21:54;;;;;;;7.03;6.03;;;;;;;;;;2056739;28;20613;-63
2022/08/09 00:22:54;;;;;;;8.32;5.78;;;;;;;;;;2057048;28;20178;-64
2022/08/09 00:23:54;;;;;;;7.65;5.60;;;;;;;;;;2056140;28;20201;-65
2022/08/09 00:24:55;;;;;;;5.50;5.10;;;;;;;;;;2056470;28;20230;-62
2022/08/09 00:25:55;;;;;;;8.15;6.38;;;;;;;;;;2056028;28;20182;-64
2022/08/09 00:26:56;;;;;;;5.72;5.20;;;;;;;;;;2056426;28;20237;-63
2022/08/09 00:27:56;;;;;;;7.85;6.03;;;;;;;;;;2063971;28;20629;-63
2022/08/09 00:28:57;;;;;;;6.22;5.63;;;;;;;;;;2056499;28;20167;-66
2022/08/09 00:29:57;;;;;;;5.93;5.43;;;;;;;;;;2056073;28;20190;-63
2022/08/09 00:30:58;;;;;;;5.93;5.40;;;;;;;;;;2057106;28;20232;-62
2022/08/09 00:31:58;;;;;;;7.55;5.63;;;;;;;;;;2061340;28;20170;-63
2022/08/09 00:32:59;;;;;;;6.68;6.05;;;;;;;;;;2057559;28;20691;-64
2022/08/09 00:33:59;;;;;;;6.05;5.40;;;;;;;;;;2056191;28;20162;-65
2022/08/09 00:34:59;;;;;;;6.20;5.57;;;;;;;;;;2057159;28;20225;-63
2022/08/09 00:36:00;;;;;;;6.00;5.18;;;;;;;;;;2057319;28;20174;-63
2022/08/09 00:37:01;;;;;;;6.40;5.32;;;;;;;;;;2057301;28;20173;-65
2022/08/09 00:38:01;;;;;;;5.55;5.05;;;;;;;;;;2056162;28;20202;-66
2022/08/09 00:39:01;;;;;;;5.95;5.43;;;;;;;;;;2056588;28;20676;-64
2022/08/09 00:40:02;;;;;;;10.90;9.73;;;;;;;;;;2056834;28;20174;-63
2022/08/09 00:41:02;;;;;;;9.77;8.70;;;;;;;;;;2056972;28;20245;-62
2022/08/09 00:42:03;;;;;;;11.88;6.45;;;;;;;;;;2056771;28;20667;-64
2022/08/09 00:43:03;;;;;;;11.30;8.50;;;;;;;;;;2057000;28;20178;-63
2022/08/09 00:44:03;;;;;;;18.10;16.42;;;;;;;;;;2055948;28;20194;-64
2022/08/09 00:45:04;;;;;;;7.97;7.28;;;;;;;;;;2057036;28;20210;-63
2022/08/09 00:46:05;;;;;;;10.00;8.73;;;;;;;;;;2057116;28;20209;-63
2022/08/09 00:47:06;;;;;;;14.13;12.70;;;;;;;;;;2056701;28;20666;-64
2022/08/09 00:48:06;;;;;;;12.43;8.95;;;;;;;;;;2056754;28;20187;-61
2022/08/09 00:49:06;;;;;;;8.93;8.05;;;;;;;;;;2056836;28;20768;-63
2022/08/09 00:50:07;;;;;;;11.27;7.97;;;;;;;;;;2056538;28;20181;-63
2022/08/09 00:51:07;;;;;;;7.13;6.43;;;;;;;;;;2056876;28;20257;-62
2022/08/09 00:52:08;;;;;;;9.63;7.93;;;;;;;;;;2056747;28;20188;-63
2022/08/09 00:53:09;;;;;;;9.25;6.70;;;;;;;;;;2056814;28;20174;-65
2022/08/09 00:54:09;;;;;;;8.02;7.25;;;;;;;;;;2055971;28;20208;-63
2022/08/09 00:55:09;;;;;;;10.80;8.45;;;;;;;;;;2056874;28;20249;-63
2022/08/09 00:56:10;;;;;;;13.68;8.63;;;;;;;;;;2056944;28;20163;-63
2022/08/09 00:57:10;;;;;;;7.20;6.50;;;;;;;;;;2056563;28;20194;-63
2022/08/09 00:58:10;;;;;;;8.07;5.80;;;;;;;;;;2057016;28;20243;-64
2022/08/09 00:59:11;;;;;;;7.43;6.82;;;;;;;;;;2056730;28;20178;-64
2022/08/09 01:00:11;;;;;;;8.05;7.10;;;;;;;;;;2056640;28;20174;-61
2022/08/09 01:01:14;;;;;;;8.10;6.70;;;;;;;;;;2056266;28;20166;-63
2022/08/09 01:02:18;;;;;;;7.97;6.40;;;;;;;;;;2055823;28;20178;-62
2022/08/09 01:03:27;;;;;;;8.93;6.15;;;;;;;;;;2048877;28;20185;-63
2022/08/09 01:04:30;;;;;;;8.05;6.40;;;;;;;;;;2054527;28;20268;-61
2022/08/09 01:05:41;;;;;;;6.07;5.53;;;;;;;;;;2056679;28;20662;-64
2022/08/09 01:06:44;;;;;;;7.30;6.60;;;;;;;;;;2056142;28;20166;-63
2022/08/09 01:07:50;;;;;;;6.30;5.82;;;;;;;;;;2055883;28;20297;-63
2022/08/09 01:09:03;;;;;;;6.53;5.93;;;;;;;;;;2056383;28;20193;-62
2022/08/09 01:10:15;;;;;;;11.50;6.45;;;;;;;;;;2058051;28;20249;-64
2022/08/09 01:11:22;;;;;;;9.65;7.53;;;;;;;;;;2058061;28;20217;-65
2022/08/09 01:12:32;;;;;;;9.38;6.47;;;;;;;;;;2057513;28;20583;-62
2022/08/09 01:13:32;;;;;;;7.32;5.97;;;;;;;;;;2056542;28;20202;-64
2022/08/09 01:14:39;;;;;;;7.68;6.97;;;;;;;;;;2049444;29;20174;-62
2022/08/09 01:15:42;;;;;;;8.82;7.15;;;;;;;;;;2050280;28;20175;-63
2022/08/09 01:16:44;;;;;;;7.32;6.30;;;;;;;;;;2049820;28;20179;-64
2022/08/09 01:17:48;;;;;;;7.25;6.45;;;;;;;;;;2057259;28;20197;-64
2022/08/09 01:18:48;;;;;;;7.90;7.20;;;;;;;;;;2057790;28;20178;-64
2022/08/09 01:19:59;;;;;;;7.47;6.88;;;;;;;;;;2057753;28;20170;-64
2022/08/09 01:21:26;;;;;;;6.85;6.20;;;;;;;;;;2057968;28;20170;-63
2022/08/09 01:22:26;;;;;;;7.07;6.35;;;;;;;;;;2058419;28;20678;-64
2022/08/09 01:23:45;;;;;;;7.43;6.68;;;;;;;;;;2057333;28;20174;-65
2022/08/09 01:24:45;;;;;;;7.22;6.53;;;;;;;;;;2054707;28;20187;-63
2022/08/09 01:26:04;;;;;;;8.05;6.50;;;;;;;;;;2056637;28;20277;-62
2022/08/09 01:27:05;;;;;;;7.45;6.70;;;;;;;;;;2056878;28;20312;-64
2022/08/09 01:28:08;;;;;;;9.38;7.20;;;;;;;;;;2057275;28;20202;-62
2022/08/09 01:29:10;;;;;;;7.53;6.47;;;;;;;;;;2057332;28;20240;-64
2022/08/09 01:30:10;;;;;;;7.82;7.15;;;;;;;;;;2065483;28;20264;-63
2022/08/09 01:31:14;;;;;;;7.65;6.38;;;;;;;;;;2057915;28;20178;-64
2022/08/09 01:32:15;;;;;;;8.40;6.70;;;;;;;;;;2057403;28;20636;-65
2022/08/09 01:33:16;;;;;;;8.48;7.18;;;;;;;;;;2054861;28;20233;-63
2022/08/09 01:34:18;;;;;;;8.98;6.75;;;;;;;;;;2049255;28;20555;-65
2022/08/09 01:35:37;;;;;;;7.93;6.70;;;;;;;;;;2050467;28;20193;-65
2022/08/09 01:36:39;;;;;;;7.40;6.40;;;;;;;;;;2057845;28;20262;-64
2022/08/09 01:37:40;;;;;;;9.80;6.82;;;;;;;;;;2057956;28;20190;-63
2022/08/09 01:38:42;;;;;;;8.20;6.90;;;;;;;;;;2057756;28;20190;-63
2022/08/09 01:39:43;;;;;;;7.53;6.80;;;;;;;;;;2058254;28;20481;-64
2022/08/09 01:40:47;;;;;;;7.88;7.18;;;;;;;;;;2057960;28;20655;-62
2022/08/09 01:41:48;;;;;;;8.05;6.63;;;;;;;;;;2057961;28;20550;-62
2022/08/09 01:42:49;;;;;;;7.40;6.60;;;;;;;;;;2057905;28;20218;-63
2022/08/09 01:43:52;;;;;;;7.50;6.82;;;;;;;;;;2057388;28;20177;-64
2022/08/09 01:44:53;;;;;;;8.45;7.43;;;;;;;;;;2056854;28;20297;-62
2022/08/09 01:45:55;;;;;;;7.93;7.13;;;;;;;;;;2057979;28;20170;-63
2022/08/09 01:46:56;;;;;;;8.13;7.32;;;;;;;;;;2057646;28;20170;-63
2022/08/09 01:47:57;;;;;;;7.70;7.10;;;;;;;;;;2058086;28;20273;-65
2022/08/09 01:49:02;;;;;;;7.78;7.07;;;;;;;;;;2057811;28;20567;-65
2022/08/09 01:50:03;;;;;;;7.20;6.30;;;;;;;;;;2058005;28;20249;-65
2022/08/09 01:51:04;;;;;;;7.57;6.78;;;;;;;;;;2057793;28;20174;-65
2022/08/09 01:52:06;;;;;;;7.53;6.70;;;;;;;;;;2058040;28;20582;-64
2022/08/09 01:53:07;;;;;;;7.80;7.00;;;;;;;;;;2057712;28;20615;-64
2022/08/09 01:54:08;;;;;;;7.93;6.93;;;;;;;;;;2057075;28;20170;-63
2022/08/09 01:55:09;;;;;;;8.23;7.43;;;;;;;;;;2057751;28;20166;-62
2022/08/09 01:56:11;;;;;;;10.02;7.90;;;;;;;;;;2057791;28;20174;-64
2022/08/09 01:57:14;;;;;;;8.00;7.07;;;;;;;;;;2057041;28;20178;-63
2022/08/09 01:58:14;;;;;;;8.63;7.75;;;;;;;;;;2057277;28;20688;-63
2022/08/09 01:59:17;;;;;;;8.32;7.53;;;;;;;;;;2057850;28;20174;-64
2022/08/09 02:00:18;;;;;;;8.20;7.35;;;;;;;;;;2057174;28;20196;-65
2022/08/09 02:01:19;;;;;;;9.15;7.32;;;;;;;;;;2056864;28;20181;-63
2022/08/09 02:02:21;;;;;;;9.23;7.78;;;;;;;;;;2057907;28;20174;-62
2022/08/09 02:03:22;;;;;;;9.68;7.50;;;;;;;;;;2054726;28;20185;-62
2022/08/09 02:04:23;;;;;;;8.50;7.80;;;;;;;;;;2048409;29;20670;-63
2022/08/09 02:05:23;;;;;;;7.95;7.28;;;;;;;;;;2049220;29;20668;-61
2022/08/09 02:07:48;;;;;;;10.07;7.45;;;;;;;;;;2049354;28;20233;-64
2022/08/09 02:08:48;;;;;;;8.60;7.75;;;;;;;;;;2057654;28;20298;-62
2022/08/09 02:09:50;;;;;;;8.02;7.22;;;;;;;;;;2057553;28;20222;-64
2022/08/09 02:10:52;;;;;;;8.70;7.80;;;;;;;;;;2057637;28;20174;-63
2022/08/09 02:11:53;;;;;;;8.68;7.78;;;;;;;;;;2055394;28;20170;-64
2022/08/09 02:12:54;;;;;;;9.30;8.30;;;;;;;;;;2056703;28;20315;-65
2022/08/09 02:13:55;;;;;;;8.43;7.65;;;;;;;;;;2048775;29;20171;-62
2022/08/09 02:14:56;;;;;;;9.85;8.18;;;;;;;;;;2049578;28;20163;-63
2022/08/09 02:15:58;;;;;;;11.02;8.43;;;;;;;;;;2057257;28;20174;-63
2022/08/09 02:16:59;;;;;;;8.73;7.88;;;;;;;;;;2056979;28;20733;-62
2022/08/09 02:17:59;;;;;;;8.63;7.78;;;;;;;;;;2057630;28;20198;-65
2022/08/09 02:19:00;;;;;;;9.43;8.52;;;;;;;;;;2057630;28;20173;-60
2022/08/09 02:20:00;;;;;;;8.77;7.97;;;;;;;;;;2056782;28;20174;-63
2022/08/09 02:21:09;;;;;;;9.02;8.13;;;;;;;;;;2056025;28;20179;-63
2022/08/09 02:22:24;;;;;;;12.18;8.70;;;;;;;;;;2057597;28;20166;-63
2022/08/09 02:23:44;;;;;;;9.75;8.50;;;;;;;;;;2057589;28;20630;-62
2022/08/09 02:24:48;;;;;;;9.63;8.00;;;;;;;;;;2056527;28;20182;-63
2022/08/09 02:25:50;;;;;;;10.00;8.48;;;;;;;;;;2057477;28;20659;-63
2022/08/09 02:26:52;;;;;;;11.35;8.80;;;;;;;;;;2057272;28;20170;-60
2022/08/09 02:28:02;;;;;;;10.70;8.68;;;;;;;;;;2057507;28;20248;-64
2022/08/09 02:29:09;;;;;;;12.05;7.97;;;;;;;;;;2057275;28;21829;-64
2022/08/09 02:30:10;;;;;;;8.80;8.00;;;;;;;;;;2057278;28;20598;-63
2022/08/09 02:31:17;;;;;;;8.88;7.97;;;;;;;;;;2057361;28;20305;-63
2022/08/09 02:32:18;;;;;;;9.57;8.23;;;;;;;;;;2049652;29;20214;-62
2022/08/09 02:33:22;;;;;;;11.30;8.13;;;;;;;;;;2050697;28;20679;-64
2022/08/09 02:34:27;;;;;;;12.88;9.10;;;;;;;;;;2056640;28;20178;-61
2022/08/09 02:35:29;;;;;;;9.57;8.18;;;;;;;;;;2057811;28;20212;-63
2022/08/09 02:36:34;;;;;;;9.38;8.48;;;;;;;;;;2057473;28;20169;-61
2022/08/09 02:37:36;;;;;;;10.25;8.63;;;;;;;;;;2056446;28;20190;-62
2022/08/09 02:38:43;;;;;;;9.70;7.93;;;;;;;;;;2049040;28;20296;-62
2022/08/09 02:39:53;;;;;;;9.85;8.77;;;;;;;;;;2049525;28;20163;-61
2022/08/09 02:41:00;;;;;;;11.27;8.50;;;;;;;;;;2057456;28;20730;-63
2022/08/09 02:42:15;;;;;;;9.80;8.80;;;;;;;;;;2057255;28;20651;-64
2022/08/09 02:43:18;;;;;;;9.50;8.38;;;;;;;;;;2057250;28;20182;-64
2022/08/09 02:44:20;;;;;;;12.25;9.57;;;;;;;;;;2056860;28;20702;-63
2022/08/09 02:45:32;;;;;;;11.60;9.43;;;;;;;;;;2057481;28;20225;-65
2022/08/09 02:46:34;;;;;;;10.00;8.98;;;;;;;;;;2057654;28;20177;-63
2022/08/09 02:47:35;;;;;;;13.77;9.38;;;;;;;;;;2057149;28;20675;-63
2022/08/09 02:48:36;;;;;;;12.10;9.25;;;;;;;;;;2057564;28;20551;-64
2022/08/09 02:49:52;;;;;;;11.45;9.35;;;;;;;;;;2057525;28;20171;-62
2022/08/09 02:50:54;;;;;;;10.82;8.80;;;;;;;;;;2057563;28;20209;-63
2022/08/09 02:51:56;;;;;;;9.88;8.90;;;;;;;;;;2057219;28;20678;-63
2022/08/09 02:53:00;;;;;;;10.07;8.95;;;;;;;;;;2057523;28;20644;-61
2022/08/09 02:54:01;;;;;;;9.25;8.35;;;;;;;;;;2049663;28;20163;-60
2022/08/09 02:55:02;;;;;;;10.38;9.02;;;;;;;;;;2048760;29;20168;-64
2022/08/09 02:56:03;;;;;;;10.70;9.00;;;;;;;;;;2048862;29;20254;-60
2022/08/09 02:57:04;;;;;;;10.60;9.35;;;;;;;;;;2051818;28;20166;-64
2022/08/09 02:58:06;;;;;;;9.80;8.77;;;;;;;;;;2049227;28;20207;-63
2022/08/09 02:59:08;;;;;;;10.07;8.88;;;;;;;;;;2060447;28;20646;-64
2022/08/09 03:00:09;;;;;;;13.68;8.85;;;;;;;;;;2064711;28;20189;-63
2022/08/09 03:01:10;;;;;;;11.50;9.20;;;;;;;;;;2057481;28;20166;-62
2022/08/09 03:02:13;;;;;;;11.48;8.75;;;;;;;;;;2056989;28;20166;-65
2022/08/09 03:03:13;;;;;;;13.63;10.07;;;;;;;;;;2057387;28;20175;-61
2022/08/09 03:04:14;;;;;;;11.07;9.05;;;;;;;;;;2056071;28;20181;-64
2022/08/09 03:05:16;;;;;;;14.18;9.90;;;;;;;;;;2057439;28;20174;-64
2022/08/09 03:06:17;;;;;;;10.85;9.60;;;;;;;;;;2061006;28;20647;-63
2022/08/09 03:07:17;;;;;;;11.40;9.52;;;;;;;;;;2057312;28;20209;-62
2022/08/09 03:08:20;;;;;;;10.05;9.10;;;;;;;;;;2057057;28;20669;-60
2022/08/09 03:09:21;;;;;;;10.50;9.15;;;;;;;;;;2057294;28;20649;-64
2022/08/09 03:10:22;;;;;;;12.07;9.30;;;;;;;;;;2057061;28;20166;-60
2022/08/09 03:11:23;;;;;;;10.27;9.27;;;;;;;;;;2051042;28;20167;-65
2022/08/09 03:12:24;;;;;;;10.18;8.95;;;;;;;;;;2055497;28;20174;-62
2022/08/09 03:13:26;;;;;;;10.48;9.32;;;;;;;;;;2049284;29;20254;-64
2022/08/09 03:14:28;;;;;;;10.40;9.30;;;;;;;;;;2048717;28;20238;-60
2022/08/09 03:15:28;;;;;;;10.70;9.07;;;;;;;;;;2040953;29;20275;-64
2022/08/09 03:16:30;;;;;;;11.40;9.63;;;;;;;;;;2048699;29;20167;-66
2022/08/09 03:17:31;;;;;;;13.38;9.65;;;;;;;;;;2048728;28;20298;-63
2022/08/09 03:18:32;;;;;;;11.55;10.23;;;;;;;;;;2040748;29;20175;-64
2022/08/09 03:19:33;;;;;;;11.25;10.05;;;;;;;;;;2040925;29;20171;-63
2022/08/09 03:20:34;;;;;;;12.18;8.73;;;;;;;;;;2048783;29;20179;-64
2022/08/09 03:21:35;;;;;;;10.38;8.65;;;;;;;;;;2050480;28;20187;-63
2022/08/09 03:22:38;;;;;;;11.68;9.20;;;;;;;;;;2056994;28;20178;-62
2022/08/09 03:23:38;;;;;;;11.00;9.80;;;;;;;;;;2057315;28;20237;-62
2022/08/09 03:24:39;;;;;;;11.40;8.93;;;;;;;;;;2056412;28;20178;-62
2022/08/09 03:25:41;;;;;;;9.52;8.63;;;;;;;;;;2057292;28;20185;-63
2022/08/09 03:26:42;;;;;;;12.35;9.07;;;;;;;;;;2056866;28;20170;-63
2022/08/09 03:27:45;;;;;;;11.43;9.68;;;;;;;;;;2057049;28;20222;-63
2022/08/09 03:28:47;;;;;;;12.10;8.32;;;;;;;;;;2057285;28;20559;-63
2022/08/09 03:29:51;;;;;;;11.93;9.27;;;;;;;;;;2056947;28;20248;-64
2022/08/09 03:30:52;;;;;;;9.48;8.55;;;;;;;;;;2056990;28;20173;-62
2022/08/09 03:31:53;;;;;;;9.65;8.50;;;;;;;;;;2056768;28;20178;-64
2022/08/09 03:32:53;;;;;;;10.82;9.32;;;;;;;;;;2057056;28;20173;-61
2022/08/09 03:33:54;;;;;;;10.18;9.10;;;;;;;;;;2056194;28;20578;-64
2022/08/09 03:34:55;;;;;;;10.52;9.40;;;;;;;;;;2056085;28;20249;-63
2022/08/09 03:35:55;;;;;;;10.43;9.32;;;;;;;;;;2064666;28;20528;-64
2022/08/09 03:36:56;;;;;;;11.27;9.32;;;;;;;;;;2056230;28;20233;-62
2022/08/09 03:37:57;;;;;;;10.05;9.02;;;;;;;;;;2048492;28;20205;-63
2022/08/09 03:38:57;;;;;;;10.52;9.45;;;;;;;;;;2056358;28;20830;-62
2022/08/09 03:39:58;;;;;;;14.40;9.73;;;;;;;;;;2056367;28;20186;-62
2022/08/09 03:40:58;;;;;;;11.45;9.50;;;;;;;;;;2048446;29;20204;-59
2022/08/09 03:41:58;;;;;;;11.63;9.02;;;;;;;;;;2056492;28;20214;-62
2022/08/09 03:42:59;;;;;;;13.65;8.95;;;;;;;;;;2056854;28;20166;-64
2022/08/09 03:43:59;;;;;;;11.88;8.95;;;;;;;;;;2056294;28;20170;-64
2022/08/09 03:44:59;;;;;;;12.82;10.10;;;;;;;;;;2057125;28;20198;-62
2022/08/09 03:46:00;;;;;;;9.95;8.85;;;;;;;;;;2056871;28;20177;-61
2022/08/09 03:47:01;;;;;;;11.98;9.43;;;;;;;;;;2057020;28;20229;-64
2022/08/09 03:48:01;;;;;;;11.13;9.35;;;;;;;;;;2056729;28;20276;-63
2022/08/09 03:49:03;;;;;;;10.93;9.80;;;;;;;;;;2056943;28;20166;-67
2022/08/09 03:50:05;;;;;;;13.23;9.55;;;;;;;;;;2056959;28;20186;-64
2022/08/09 03:51:08;;;;;;;10.63;8.27;;;;;;;;;;2057288;28;20174;-63
2022/08/09 03:52:09;;;;;;;10.32;9.20;;;;;;;;;;2056935;28;20178;-64
2022/08/09 03:53:10;;;;;;;13.65;9.65;;;;;;;;;;2056948;28;20194;-63
2022/08/09 03:54:10;;;;;;;12.90;9.13;;;;;;;;;;2056245;28;20583;-61
2022/08/09 03:55:12;;;;;;;11.85;8.70;;;;;;;;;;2057216;28;20194;-59
2022/08/09 03:56:12;;;;;;;11.45;9.27;;;;;;;;;;2057082;28;20571;-64
2022/08/09 03:57:13;;;;;;;11.25;9.05;;;;;;;;;;2057015;28;20249;-61
2022/08/09 03:58:14;;;;;;;12.43;9.32;;;;;;;;;;2056941;28;20173;-63
2022/08/09 03:59:14;;;;;;;10.65;9.25;;;;;;;;;;2057187;28;20596;-63
2022/08/09 04:00:15;;;;;;;10.20;8.27;;;;;;;;;;2056917;28;20260;-62
2022/08/09 04:01:16;;;;;;;11.75;8.95;;;;;;;;;;2056995;28;20206;-65
2022/08/09 04:02:17;;;;;;;12.68;8.80;;;;;;;;;;2057038;28;20186;-64
2022/08/09 04:03:17;;;;;;;11.32;8.95;;;;;;;;;;2057274;28;20785;-63
2022/08/09 04:04:18;;;;;;;11.70;8.32;;;;;;;;;;2056299;28;20181;-64
2022/08/09 04:05:19;;;;;;;10.18;8.82;;;;;;;;;;2057178;28;20550;-61
2022/08/09 04:06:20;;;;;;;10.10;9.10;;;;;;;;;;2062925;28;20185;-65
2022/08/09 04:07:20;;;;;;;10.15;9.15;;;;;;;;;;2059287;28;20200;-64
2022/08/09 04:08:20;;;;;;;11.65;9.07;;;;;;;;;;2057456;28;20284;-63
2022/08/09 04:09:21;;;;;;;9.40;8.50;;;;;;;;;;2057091;28;20189;-63
2022/08/09 04:10:22;;;;;;;10.95;9.00;;;;;;;;;;2056647;28;20171;-61
2022/08/09 04:11:23;;;;;;;9.70;7.93;;;;;;;;;;2056429;28;20182;-65
2022/08/09 04:12:32;;;;;;;12.98;8.82;;;;;;;;;;2057060;28;20198;-64
2022/08/09 04:13:33;;;;;;;10.93;8.15;;;;;;;;;;2056910;28;20222;-64
2022/08/09 04:14:33;;;;;;;10.38;9.25;;;;;;;;;;2055914;28;20671;-63
2022/08/09 04:15:34;;;;;;;10.13;8.52;;;;;;;;;;2057074;28;20663;-62
2022/08/09 04:16:34;;;;;;;10.13;9.13;;;;;;;;;;2056920;28;20274;-63
2022/08/09 04:17:35;;;;;;;9.88;8.85;;;;;;;;;;2057099;28;20679;-63
2022/08/09 04:18:36;;;;;;;11.63;9.27;;;;;;;;;;2057112;28;20274;-62
2022/08/09 04:19:36;;;;;;;10.38;8.43;;;;;;;;;;2057378;28;20168;-62
2022/08/09 04:20:36;;;;;;;10.95;9.23;;;;;;;;;;2057397;28;20181;-65
2022/08/09 04:21:37;;;;;;;12.63;9.77;;;;;;;;;;2057989;28;20221;-65
2022/08/09 04:22:37;;;;;;;10.50;8.90;;;;;;;;;;2057725;28;20182;-64
2022/08/09 04:23:38;;;;;;;9.95;8.93;;;;;;;;;;2057875;28;20251;-63
2022/08/09 04:24:38;;;;;;;11.02;8.70;;;;;;;;;;2057448;28;20735;-63
2022/08/09 04:25:38;;;;;;;9.52;8.50;;;;;;;;;;2058235;28;20174;-63
2022/08/09 04:26:39;;;;;;;9.82;8.77;;;;;;;;;;2058023;28;20643;-63
2022/08/09 04:27:42;;;;;;;13.65;8.98;;;;;;;;;;2057954;28;20293;-65
2022/08/09 04:28:42;;;;;;;10.40;8.98;;;;;;;;;;2059416;28;20179;-64
2022/08/09 04:29:42;;;;;;;9.45;8.55;;;;;;;;;;2059044;28;20239;-63
2022/08/09 04:30:43;;;;;;;9.63;8.70;;;;;;;;;;2058667;28;20193;-63
2022/08/09 04:31:43;;;;;;;10.57;8.77;;;;;;;;;;2057878;28;20217;-61
2022/08/09 04:32:44;;;;;;;11.88;8.88;;;;;;;;;;2057747;28;20523;-64
2022/08/09 04:33:44;;;;;;;11.18;9.50;;;;;;;;;;2057992;28;20190;-63
2022/08/09 04:34:44;;;;;;;10.98;9.80;;;;;;;;;;2057603;28;20166;-64
2022/08/09 04:35:45;;;;;;;11.00;9.13;;;;;;;;;;2057708;28;20186;-64
2022/08/09 04:36:45;;;;;;;10.50;8.57;;;;;;;;;;2057889;28;20171;-62
2022/08/09 04:37:46;;;;;;;10.00;8.73;;;;;;;;;;2057546;28;20194;-64
2022/08/09 04:38:46;;;;;;;10.10;9.07;;;;;;;;;;2057798;28;20265;-64
2022/08/09 04:39:46;;;;;;;9.88;8.98;;;;;;;;;;2057935;28;20166;-62
2022/08/09 04:40:47;;;;;;;13.15;9.00;;;;;;;;;;2057477;28;20174;-61
2022/08/09 04:41:47;;;;;;;10.65;9.13;;;;;;;;;;2057463;28;20785;-64
2022/08/09 04:42:47;;;;;;;9.40;8.50;;;;;;;;;;2057680;28;20185;-65
2022/08/09 04:43:48;;;;;;;9.35;8.50;;;;;;;;;;2048319;28;20743;-61
2022/08/09 04:44:48;;;;;;;10.38;9.13;;;;;;;;;;2049483;29;20663;-61
2022/08/09 04:45:48;;;;;;;9.75;8.50;;;;;;;;;;2059536;28;20217;-64
2022/08/09 04:46:48;;;;;;;11.63;9.02;;;;;;;;;;2059293;28;20289;-63
2022/08/09 04:47:49;;;;;;;10.45;8.40;;;;;;;;;;2059891;28;20210;-64
2022/08/09 04:48:49;;;;;;;10.13;8.40;;;;;;;;;;2060101;28;20175;-62
2022/08/09 04:49:50;;;;;;;10.82;8.45;;;;;;;;;;2060784;28;20181;-60
2022/08/09 04:50:50;;;;;;;10.07;8.48;;;;;;;;;;2059874;28;20179;-63
2022/08/09 04:51:51;;;;;;;9.85;9.00;;;;;;;;;;2058886;28;20174;-64
2022/08/09 04:52:52;;;;;;;9.93;8.75;;;;;;;;;;2052065;28;20213;-62
2022/08/09 04:53:52;;;;;;;8.50;7.68;;;;;;;;;;2050086;29;20266;-54
2022/08/09 04:54:56;;;;;;;9.38;8.25;;;;;;;;;;2058895;28;20541;-63
2022/08/09 04:55:57;;;;;;;10.07;7.88;;;;;;;;;;2066575;28;20189;-64
2022/08/09 04:56:58;;;;;;;9.80;8.18;;;;;;;;;;2058352;28;20542;-63
2022/08/09 04:57:58;;;;;;;9.40;8.50;;;;;;;;;;2057269;28;20216;-64
2022/08/09 04:58:58;;;;;;;9.63;8.73;;;;;;;;;;2058099;28;20169;-59
2022/08/09 04:59:59;;;;;;;10.45;8.35;;;;;;;;;;2058474;28;20667;-60
2022/08/09 05:01:00;;;;;;;11.40;8.48;;;;;;;;;;2057706;28;20201;-65
2022/08/09 05:02:00;;;;;;;9.02;8.18;;;;;;;;;;2049846;28;20171;-61
2022/08/09 05:03:02;;;;;;;12.85;8.68;;;;;;;;;;2057637;28;20225;-62
2022/08/09 05:04:02;;;;;;;8.93;7.93;;;;;;;;;;2057574;28;20265;-68
2022/08/09 05:05:02;;;;;;;9.23;8.30;;;;;;;;;;2057275;28;20186;-64
2022/08/09 05:06:05;;;;;;;10.25;8.05;;;;;;;;;;2061351;28;20276;-64
2022/08/09 05:07:06;;;;;;;8.80;7.82;;;;;;;;;;2062862;28;20170;-62
2022/08/09 05:08:06;;;;;;;10.23;7.88;;;;;;;;;;2057818;28;20317;-61
2022/08/09 05:09:06;;;;;;;8.73;7.78;;;;;;;;;;2057979;28;20175;-64
2022/08/09 05:10:07;;;;;;;9.00;7.65;;;;;;;;;;2058311;28;20174;-63
2022/08/09 05:11:07;;;;;;;8.02;7.25;;;;;;;;;;2058254;28;20170;-66
2022/08/09 05:12:08;;;;;;;8.43;7.57;;;;;;;;;;2058452;28;20207;-63
2022/08/09 05:13:08;;;;;;;8.05;7.07;;;;;;;;;;2058024;28;20196;-59
2022/08/09 05:14:08;;;;;;;8.55;7.72;;;;;;;;;;2057304;28;20174;-61
2022/08/09 05:15:09;;;;;;;12.25;7.85;;;;;;;;;;2058110;28;20174;-61
2022/08/09 05:16:09;;;;;;;8.70;7.88;;;;;;;;;;2056760;28;20162;-65
2022/08/09 05:17:10;;;;;;;8.50;7.25;;;;;;;;;;2049734;28;20183;-61
2022/08/09 05:18:10;;;;;;;8.80;7.88;;;;;;;;;;2050267;29;20163;-59
2022/08/09 05:19:13;;;;;;;10.60;7.85;;;;;;;;;;2057081;28;20174;-66
